createdAt,value
2022-11-13T00:00:51.187Z,15.90
2022-11-13T00:01:52.913Z,14.67
2022-11-13T00:02:54.701Z,14.33
2022-11-13T00:03:58.838Z,16.70
2022-11-13T00:05:00.530Z,12.43
2022-11-13T00:06:03.294Z,13.87
2022-11-13T00:07:05.027Z,13.40
2022-11-13T00:08:06.766Z,13.43
2022-11-13T00:09:11.236Z,13.10
2022-11-13T00:10:12.935Z,15.17
2022-11-13T00:11:18.500Z,16.40
2022-11-13T00:12:20.353Z,29.17
2022-11-13T00:13:26.130Z,24.20
2022-11-13T00:14:30.802Z,19.67
2022-11-13T00:15:32.469Z,18.43
2022-11-13T00:16:34.161Z,17.97
2022-11-13T00:17:35.837Z,16.67
2022-11-13T00:18:37.958Z,14.03
2022-11-13T00:19:39.705Z,14.40
2022-11-13T00:20:41.388Z,15.57
2022-11-13T00:21:43.152Z,13.63
2022-11-13T00:22:45.574Z,15.77
2022-11-13T00:23:47.536Z,13.30
2022-11-13T00:24:49.209Z,13.70
2022-11-13T00:25:50.908Z,15.40
2022-11-13T00:26:52.594Z,13.00
2022-11-13T00:27:54.270Z,14.30
2022-11-13T00:28:58.372Z,13.03
2022-11-13T00:30:00.140Z,16.93
2022-11-13T00:31:03.546Z,14.27
2022-11-13T00:32:05.409Z,19.20
2022-11-13T00:33:07.128Z,14.93
2022-11-13T00:34:33.070Z,13.07
2022-11-13T00:35:33.389Z,12.27
2022-11-13T00:36:35.103Z,13.07
2022-11-13T00:37:36.925Z,11.10
2022-11-13T00:38:38.651Z,14.30
2022-11-13T00:39:40.327Z,12.80
2022-11-13T00:40:42.433Z,12.17
2022-11-13T00:41:44.124Z,12.67
2022-11-13T00:42:45.878Z,16.83
2022-11-13T00:43:47.687Z,15.77
2022-11-13T00:44:49.354Z,13.23
2022-11-13T00:45:51.352Z,13.90
2022-11-13T00:46:53.056Z,13.67
2022-11-13T00:47:54.827Z,12.17
2022-11-13T00:48:56.621Z,13.67
2022-11-13T00:49:58.274Z,12.30
2022-11-13T00:51:00.211Z,14.17
2022-11-13T00:52:03.539Z,11.70
2022-11-13T00:53:05.677Z,11.60
2022-11-13T00:54:07.354Z,14.87
2022-11-13T00:55:09.284Z,12.93
2022-11-13T00:56:11.206Z,11.80
2022-11-13T00:57:12.903Z,11.57
2022-11-13T00:58:15.477Z,12.03
2022-11-13T00:59:17.174Z,11.93
2022-11-13T01:00:19.093Z,13.83
2022-11-13T01:01:21.108Z,10.97
2022-11-13T01:02:22.861Z,10.90
2022-11-13T01:03:24.640Z,12.87
2022-11-13T01:04:28.415Z,12.50
2022-11-13T01:05:30.230Z,12.33
2022-11-13T01:06:31.937Z,14.27
2022-11-13T01:07:36.623Z,11.00
2022-11-13T01:08:38.379Z,12.03
2022-11-13T01:09:40.052Z,13.73
2022-11-13T01:10:47.603Z,13.70
2022-11-13T01:11:53.727Z,12.20
2022-11-13T01:12:55.505Z,14.17
2022-11-13T01:13:57.726Z,13.37
2022-11-13T01:15:00.088Z,13.23
2022-11-13T01:16:06.681Z,12.97
2022-11-13T01:17:08.461Z,13.03
2022-11-13T01:18:10.712Z,13.13
2022-11-13T01:19:12.555Z,13.53
2022-11-13T01:20:14.268Z,12.67
2022-11-13T01:21:19.188Z,13.57
2022-11-13T01:22:20.979Z,13.57
2022-11-13T01:23:22.651Z,12.77
2022-11-13T01:24:24.507Z,17.17
2022-11-13T01:25:28.231Z,13.70
2022-11-13T01:26:30.825Z,14.90
2022-11-13T01:27:32.558Z,13.77
2022-11-13T01:28:34.297Z,11.90
2022-11-13T01:29:38.238Z,14.63
2022-11-13T01:30:40.333Z,12.80
2022-11-13T01:31:42.003Z,12.93
2022-11-13T01:32:43.653Z,12.47
2022-11-13T01:33:46.777Z,12.40
2022-11-13T01:34:48.453Z,11.37
2022-11-13T01:35:50.202Z,12.27
2022-11-13T01:36:51.989Z,12.93
2022-11-13T01:37:53.671Z,13.00
2022-11-13T01:38:56.008Z,13.50
2022-11-13T01:39:57.689Z,12.20
2022-11-13T01:40:59.504Z,10.90
2022-11-13T01:42:01.530Z,12.77
2022-11-13T01:43:24.005Z,13.47
2022-11-13T01:44:25.806Z,11.73
2022-11-13T01:46:02.376Z,15.00
2022-11-13T01:47:05.074Z,14.03
2022-11-13T01:48:09.738Z,12.23
2022-11-13T01:49:11.408Z,13.57
2022-11-13T01:50:15.132Z,14.13
2022-11-13T01:51:27.944Z,14.23
2022-11-13T01:52:33.893Z,13.43
2022-11-13T01:53:36.119Z,11.13
2022-11-13T01:54:42.638Z,13.33
2022-11-13T01:55:44.477Z,14.80
2022-11-13T01:56:46.861Z,14.93
2022-11-13T01:57:48.699Z,15.80
2022-11-13T01:59:07.198Z,14.40
2022-11-13T02:00:11.441Z,13.93
2022-11-13T02:01:13.234Z,13.63
2022-11-13T02:02:15.027Z,15.77
2022-11-13T02:03:16.764Z,14.00
2022-11-13T02:04:18.482Z,14.70
2022-11-13T02:05:20.227Z,15.03
2022-11-13T02:06:22.134Z,19.83
2022-11-13T02:07:24.040Z,16.83
2022-11-13T02:08:26.184Z,16.47
2022-11-13T02:10:05.568Z,14.87
2022-11-13T02:11:07.382Z,15.57
2022-11-13T02:12:12.614Z,13.23
2022-11-13T02:13:15.375Z,13.23
2022-11-13T02:14:19.818Z,13.33
2022-11-13T02:15:25.258Z,13.77
2022-11-13T02:16:27.795Z,14.23
2022-11-13T02:17:50.436Z,14.87
2022-11-13T02:18:52.674Z,11.53
2022-11-13T02:19:58.737Z,12.73
2022-11-13T02:21:20.870Z,14.23
2022-11-13T02:22:59.443Z,12.83
2022-11-13T02:24:23.488Z,12.83
2022-11-13T02:25:27.440Z,15.17
2022-11-13T02:26:31.200Z,14.93
2022-11-13T02:27:49.609Z,18.20
2022-11-13T02:28:51.339Z,31.60
2022-11-13T02:29:52.994Z,26.03
2022-11-13T02:30:54.674Z,27.60
2022-11-13T02:31:56.730Z,39.33
2022-11-13T02:32:59.683Z,29.13
2022-11-13T02:34:04.549Z,21.03
2022-11-13T02:35:06.482Z,19.83
2022-11-13T02:36:10.682Z,13.00
2022-11-13T02:37:12.392Z,12.87
2022-11-13T02:38:14.078Z,12.37
2022-11-13T02:39:15.925Z,10.73
2022-11-13T02:40:18.524Z,13.30
2022-11-13T02:41:20.246Z,12.37
2022-11-13T02:42:21.893Z,13.53
2022-11-13T02:43:23.627Z,13.40
2022-11-13T02:44:25.312Z,12.57
2022-11-13T02:45:26.972Z,13.37
2022-11-13T02:46:28.699Z,11.83
2022-11-13T02:47:30.367Z,12.20
2022-11-13T02:48:32.149Z,11.90
2022-11-13T02:49:33.998Z,13.77
2022-11-13T02:50:37.341Z,11.27
2022-11-13T02:51:39.010Z,12.10
2022-11-13T02:52:40.769Z,12.30
2022-11-13T02:53:42.493Z,10.77
2022-11-13T02:54:44.144Z,11.03
2022-11-13T02:55:46.017Z,11.70
2022-11-13T02:56:47.708Z,10.93
2022-11-13T02:57:49.404Z,11.67
2022-11-13T02:58:51.321Z,10.27
2022-11-13T02:59:52.987Z,11.47
2022-11-13T03:00:54.663Z,11.30
2022-11-13T03:01:56.425Z,12.00
2022-11-13T03:02:58.169Z,10.73
2022-11-13T03:03:59.921Z,10.67
2022-11-13T03:05:17.061Z,11.90
2022-11-13T03:06:18.799Z,11.83
2022-11-13T03:07:20.515Z,11.73
2022-11-13T03:08:24.109Z,12.07
2022-11-13T03:09:25.781Z,12.97
2022-11-13T03:10:27.524Z,19.93
2022-11-13T03:11:29.232Z,15.10
2022-11-13T03:12:31.269Z,13.77
2022-11-13T03:13:33.058Z,14.50
2022-11-13T03:14:34.902Z,15.80
2022-11-13T03:15:36.581Z,12.90
2022-11-13T03:16:38.287Z,17.87
2022-11-13T03:17:40.004Z,19.50
2022-11-13T03:18:42.264Z,15.73
2022-11-13T03:19:43.996Z,18.73
2022-11-13T03:20:45.682Z,13.93
2022-11-13T03:21:47.361Z,16.37
2022-11-13T03:22:49.143Z,26.47
2022-11-13T03:23:50.858Z,17.53
2022-11-13T03:24:52.606Z,96.80
2022-11-13T03:25:54.327Z,13.07
2022-11-13T03:26:56.022Z,100.53
2022-11-13T03:27:57.791Z,70.87
2022-11-13T03:28:59.685Z,86.60
2022-11-13T03:30:01.370Z,124.17
2022-11-13T03:31:03.735Z,87.23
2022-11-13T03:32:05.906Z,115.00
2022-11-13T03:33:07.571Z,210.53
2022-11-13T03:34:09.419Z,134.80
2022-11-13T03:35:11.121Z,164.07
2022-11-13T03:36:12.799Z,135.63
2022-11-13T03:37:14.508Z,167.97
2022-11-13T03:38:16.178Z,155.13
2022-11-13T03:39:17.904Z,192.90
2022-11-13T03:40:19.654Z,186.10
2022-11-13T03:41:23.141Z,145.10
2022-11-13T03:42:24.799Z,231.97
2022-11-13T03:43:26.898Z,192.07
2022-11-13T03:44:28.642Z,58.80
2022-11-13T03:45:30.382Z,275.37
2022-11-13T03:46:32.049Z,384.63
2022-11-13T03:47:33.838Z,157.90
2022-11-13T03:48:35.981Z,429.40
2022-11-13T03:49:37.693Z,354.57
2022-11-13T03:50:45.249Z,252.90
2022-11-13T03:51:47.251Z,162.53
2022-11-13T03:52:48.920Z,280.20
2022-11-13T03:53:50.634Z,67.47
2022-11-13T03:54:52.364Z,83.17
2022-11-13T03:55:54.083Z,175.10
2022-11-13T03:56:56.000Z,283.40
2022-11-13T03:57:57.747Z,387.03
2022-11-13T03:58:59.582Z,283.83
2022-11-13T04:00:01.277Z,226.90
2022-11-13T04:01:03.065Z,40.57
2022-11-13T04:02:04.859Z,66.27
2022-11-13T04:03:06.623Z,52.03
2022-11-13T04:04:08.497Z,101.10
2022-11-13T04:05:10.259Z,88.53
2022-11-13T04:06:12.035Z,62.43
2022-11-13T04:07:13.751Z,62.50
2022-11-13T04:08:16.726Z,70.17
2022-11-13T04:09:18.397Z,36.90
2022-11-13T04:10:20.116Z,144.13
2022-11-13T04:11:22.064Z,30.63
2022-11-13T04:12:23.794Z,79.37
2022-11-13T04:13:25.479Z,125.60
2022-11-13T04:14:27.142Z,240.00
2022-11-13T04:15:28.879Z,89.27
2022-11-13T04:16:30.560Z,71.03
2022-11-13T04:17:32.390Z,92.43
2022-11-13T04:18:34.111Z,81.57
2022-11-13T04:19:35.758Z,61.40
2022-11-13T04:20:37.530Z,59.40
2022-11-13T04:21:39.257Z,74.53
2022-11-13T04:22:40.975Z,85.30
2022-11-13T04:23:42.770Z,93.77
2022-11-13T04:24:44.446Z,120.67
2022-11-13T04:25:48.862Z,29.40
2022-11-13T04:26:50.556Z,53.97
2022-11-13T04:27:53.418Z,211.10
2022-11-13T04:28:55.073Z,348.83
2022-11-13T04:29:56.746Z,291.67
2022-11-13T04:30:58.742Z,310.90
2022-11-13T04:32:00.575Z,342.87
2022-11-13T04:33:02.306Z,339.07
2022-11-13T04:34:04.038Z,269.10
2022-11-13T04:35:06.702Z,236.50
2022-11-13T04:36:08.721Z,199.83
2022-11-13T04:37:10.426Z,174.90
2022-11-13T04:38:13.555Z,243.63
2022-11-13T04:39:15.233Z,203.53
2022-11-13T04:40:17.479Z,224.33
2022-11-13T04:41:37.801Z,202.90
2022-11-13T04:42:48.734Z,181.20
2022-11-13T04:43:50.406Z,239.40
2022-11-13T04:44:52.061Z,149.83
2022-11-13T04:45:53.783Z,206.17
2022-11-13T04:46:55.458Z,142.13
2022-11-13T04:47:57.178Z,218.40
2022-11-13T04:48:58.871Z,157.27
2022-11-13T04:50:00.558Z,131.50
2022-11-13T04:51:02.368Z,144.40
2022-11-13T04:52:04.195Z,104.67
2022-11-13T04:53:05.894Z,97.43
2022-11-13T04:54:07.577Z,138.63
2022-11-13T04:55:10.535Z,95.50
2022-11-13T04:56:12.245Z,43.93
2022-11-13T04:57:13.943Z,139.97
2022-11-13T04:58:15.673Z,88.87
2022-11-13T04:59:17.444Z,55.83
2022-11-13T05:00:19.332Z,54.87
2022-11-13T05:01:21.104Z,63.50
2022-11-13T05:02:23.309Z,83.40
2022-11-13T05:03:25.318Z,83.70
2022-11-13T05:04:27.028Z,54.77
2022-11-13T05:05:29.743Z,97.03
2022-11-13T05:06:31.600Z,79.83
2022-11-13T05:07:33.344Z,72.20
2022-11-13T05:08:35.541Z,68.47
2022-11-13T05:09:37.340Z,54.67
2022-11-13T05:10:39.179Z,51.40
2022-11-13T05:11:41.004Z,86.53
2022-11-13T05:12:42.680Z,65.13
2022-11-13T05:13:44.515Z,75.27
2022-11-13T05:14:46.472Z,82.47
2022-11-13T05:15:48.178Z,72.80
2022-11-13T05:16:52.884Z,34.17
2022-11-13T05:17:54.614Z,75.27
2022-11-13T05:18:58.195Z,78.67
2022-11-13T05:19:59.913Z,67.73
2022-11-13T05:21:01.774Z,89.77
2022-11-13T05:22:03.914Z,78.83
2022-11-13T05:23:05.592Z,85.63
2022-11-13T05:24:09.783Z,83.47
2022-11-13T05:25:11.598Z,66.93
2022-11-13T05:26:14.432Z,100.50
2022-11-13T05:27:17.758Z,95.80
2022-11-13T05:28:19.742Z,73.97
2022-11-13T05:29:21.517Z,99.07
2022-11-13T05:30:23.634Z,79.47
2022-11-13T05:31:26.130Z,55.47
2022-11-13T05:32:27.787Z,80.87
2022-11-13T05:33:29.519Z,72.87
2022-11-13T05:34:31.292Z,49.07
2022-11-13T05:35:33.050Z,62.97
2022-11-13T05:36:35.236Z,52.50
2022-11-13T05:37:36.918Z,69.07
2022-11-13T05:38:39.298Z,44.80
2022-11-13T05:39:40.945Z,33.83
2022-11-13T05:40:42.599Z,47.27
2022-11-13T05:41:44.320Z,36.40
2022-11-13T05:42:46.018Z,49.23
2022-11-13T05:43:48.512Z,39.13
2022-11-13T05:44:50.194Z,40.23
2022-11-13T05:45:51.866Z,34.60
2022-11-13T05:46:53.609Z,39.07
2022-11-13T05:47:55.292Z,48.07
2022-11-13T05:48:59.576Z,33.47
2022-11-13T05:50:01.324Z,24.33
2022-11-13T05:51:08.485Z,30.77
2022-11-13T05:52:10.276Z,24.73
2022-11-13T05:53:11.973Z,36.03
2022-11-13T05:54:13.700Z,34.80
2022-11-13T05:55:15.647Z,31.03
2022-11-13T05:56:23.176Z,37.30
2022-11-13T05:57:24.946Z,26.13
2022-11-13T05:58:28.460Z,39.20
2022-11-13T05:59:30.636Z,36.97
2022-11-13T06:00:32.342Z,33.83
2022-11-13T06:01:39.108Z,30.40
2022-11-13T06:02:40.838Z,27.87
2022-11-13T06:03:43.150Z,38.47
2022-11-13T06:04:44.837Z,23.60
2022-11-13T06:05:46.486Z,24.90
2022-11-13T06:06:48.287Z,117.40
2022-11-13T06:07:50.604Z,33.00
2022-11-13T06:08:53.939Z,49.17
2022-11-13T06:09:55.634Z,42.07
2022-11-13T06:11:02.255Z,27.47
2022-11-13T06:12:04.148Z,46.17
2022-11-13T06:13:05.847Z,44.27
2022-11-13T06:14:07.582Z,35.63
2022-11-13T06:15:09.843Z,30.73
2022-11-13T06:16:20.145Z,33.03
2022-11-13T06:17:21.849Z,28.93
2022-11-13T06:18:26.777Z,39.53
2022-11-13T06:19:28.737Z,36.27
2022-11-13T06:20:30.415Z,64.53
2022-11-13T06:21:33.916Z,32.43
2022-11-13T06:22:35.597Z,36.47
2022-11-13T06:23:38.990Z,36.77
2022-11-13T06:24:40.704Z,35.60
2022-11-13T06:25:43.122Z,68.47
2022-11-13T06:26:44.793Z,53.17
2022-11-13T06:27:46.445Z,190.20
2022-11-13T06:28:48.817Z,26.93
2022-11-13T06:29:50.534Z,81.97
2022-11-13T06:30:52.242Z,137.20
2022-11-13T06:31:53.952Z,97.07
2022-11-13T06:32:55.609Z,33.63
2022-11-13T06:33:59.223Z,57.03
2022-11-13T06:35:00.943Z,109.97
2022-11-13T06:36:04.562Z,30.83
2022-11-13T06:37:06.234Z,143.90
2022-11-13T06:38:07.879Z,115.30
2022-11-13T06:39:10.603Z,135.30
2022-11-13T06:40:13.442Z,49.63
2022-11-13T06:41:17.121Z,44.07
2022-11-13T06:42:18.792Z,43.83
2022-11-13T06:43:20.451Z,245.83
2022-11-13T06:44:22.182Z,93.53
2022-11-13T06:45:23.885Z,25.73
2022-11-13T06:46:27.662Z,45.97
2022-11-13T06:47:29.412Z,43.37
2022-11-13T06:48:31.724Z,302.17
2022-11-13T06:49:33.660Z,66.37
2022-11-13T06:50:35.316Z,252.80
2022-11-13T06:51:37.180Z,191.13
2022-11-13T06:52:38.872Z,42.00
2022-11-13T06:53:40.692Z,106.00
2022-11-13T06:54:42.409Z,103.03
2022-11-13T06:55:50.600Z,107.83
2022-11-13T06:56:52.295Z,118.47
2022-11-13T06:57:54.543Z,147.10
2022-11-13T06:58:56.563Z,129.23
2022-11-13T06:59:58.333Z,34.00
2022-11-13T07:01:09.461Z,30.40
2022-11-13T07:02:14.360Z,146.90
2022-11-13T07:03:19.630Z,45.13
2022-11-13T07:04:21.307Z,47.93
2022-11-13T07:05:22.972Z,59.03
2022-11-13T07:06:24.908Z,204.47
2022-11-13T07:07:26.661Z,108.83
2022-11-13T07:08:28.710Z,77.77
2022-11-13T07:09:31.641Z,61.17
2022-11-13T07:10:33.335Z,39.63
2022-11-13T07:11:34.959Z,71.40
2022-11-13T07:12:36.863Z,29.63
2022-11-13T07:13:39.026Z,85.90
2022-11-13T07:14:40.694Z,51.10
2022-11-13T07:15:42.362Z,47.10
2022-11-13T07:17:07.971Z,39.87
2022-11-13T07:18:07.141Z,46.13
2022-11-13T07:19:08.817Z,46.87
2022-11-13T07:20:10.921Z,48.53
2022-11-13T07:21:13.381Z,58.40
2022-11-13T07:22:15.107Z,35.63
2022-11-13T07:23:16.761Z,32.13
2022-11-13T07:24:18.553Z,43.10
2022-11-13T07:25:20.220Z,31.37
2022-11-13T07:26:22.732Z,37.57
2022-11-13T07:27:24.733Z,45.90
2022-11-13T07:28:26.762Z,37.03
2022-11-13T07:29:28.715Z,43.37
2022-11-13T07:30:30.582Z,40.67
2022-11-13T07:31:32.294Z,43.17
2022-11-13T07:32:33.978Z,77.00
2022-11-13T07:33:35.758Z,37.00
2022-11-13T07:34:37.403Z,34.83
2022-11-13T07:35:39.051Z,34.73
2022-11-13T07:36:40.761Z,45.77
2022-11-13T07:37:43.124Z,58.37
2022-11-13T07:38:44.884Z,58.37
2022-11-13T07:39:46.884Z,60.00
2022-11-13T07:40:48.913Z,62.03
2022-11-13T07:41:50.706Z,58.27
2022-11-13T07:42:59.933Z,76.77
2022-11-13T07:44:04.364Z,47.40
2022-11-13T07:45:08.643Z,43.10
2022-11-13T07:46:10.482Z,67.37
2022-11-13T07:47:12.164Z,47.90
2022-11-13T07:48:13.868Z,48.53
2022-11-13T07:49:15.796Z,59.90
2022-11-13T07:50:17.601Z,48.07
2022-11-13T07:51:19.330Z,51.00
2022-11-13T07:52:21.074Z,63.80
2022-11-13T07:53:23.251Z,72.00
2022-11-13T07:54:24.947Z,65.23
2022-11-13T07:55:27.476Z,40.83
2022-11-13T07:56:29.211Z,47.40
2022-11-13T07:57:30.853Z,63.33
2022-11-13T07:58:32.578Z,43.57
2022-11-13T07:59:34.638Z,39.93
2022-11-13T08:00:36.601Z,37.43
2022-11-13T08:01:38.474Z,52.50
2022-11-13T08:02:40.147Z,39.73
2022-11-13T08:03:41.845Z,84.20
2022-11-13T08:04:43.564Z,42.27
2022-11-13T08:05:45.320Z,45.93
2022-11-13T08:06:47.221Z,48.80
2022-11-13T08:07:51.570Z,111.23
2022-11-13T08:08:53.666Z,98.37
2022-11-13T08:09:55.336Z,74.27
2022-11-13T08:10:57.450Z,92.83
2022-11-13T08:11:59.120Z,76.33
2022-11-13T08:13:05.912Z,100.57
2022-11-13T08:14:07.667Z,73.90
2022-11-13T08:15:13.362Z,68.07
2022-11-13T08:16:15.942Z,90.87
2022-11-13T08:17:17.655Z,86.93
2022-11-13T08:18:19.369Z,84.23
2022-11-13T08:19:21.085Z,53.57
2022-11-13T08:20:23.654Z,69.27
2022-11-13T08:21:25.328Z,75.73
2022-11-13T08:22:27.080Z,61.43
2022-11-13T08:23:28.951Z,77.43
2022-11-13T08:24:30.670Z,72.63
2022-11-13T08:25:33.475Z,42.00
2022-11-13T08:26:38.244Z,48.57
2022-11-13T08:27:39.933Z,54.67
2022-11-13T08:28:41.684Z,64.60
2022-11-13T08:29:43.428Z,42.43
2022-11-13T08:30:45.531Z,42.57
2022-11-13T08:31:47.222Z,40.17
2022-11-13T08:32:49.230Z,44.87
2022-11-13T08:33:51.035Z,67.70
2022-11-13T08:34:52.768Z,63.43
2022-11-13T08:35:59.510Z,36.87
2022-11-13T08:37:01.200Z,42.23
2022-11-13T08:38:07.735Z,28.23
2022-11-13T08:39:09.751Z,53.63
2022-11-13T08:40:11.994Z,77.87
2022-11-13T08:41:14.002Z,66.67
2022-11-13T08:42:15.694Z,59.17
2022-11-13T08:43:20.253Z,37.77
2022-11-13T08:44:21.997Z,54.67
2022-11-13T08:45:23.732Z,54.40
2022-11-13T08:46:25.459Z,34.80
2022-11-13T08:47:29.725Z,39.33
2022-11-13T08:48:31.789Z,58.93
2022-11-13T08:49:33.913Z,29.80
2022-11-13T08:50:35.660Z,25.17
2022-11-13T08:51:37.345Z,39.80
2022-11-13T08:52:39.060Z,27.03
2022-11-13T08:53:40.982Z,26.17
2022-11-13T08:54:42.779Z,32.20
2022-11-13T08:55:44.508Z,26.67
2022-11-13T08:56:51.555Z,20.07
2022-11-13T08:58:02.094Z,19.90
2022-11-13T08:59:03.932Z,26.03
2022-11-13T09:00:06.562Z,20.47
2022-11-13T09:01:08.239Z,44.73
2022-11-13T09:02:14.263Z,30.83
2022-11-13T09:03:16.010Z,26.77
2022-11-13T09:04:17.732Z,28.47
2022-11-13T09:05:19.583Z,23.77
2022-11-13T09:06:21.265Z,27.50
2022-11-13T09:07:27.214Z,27.07
2022-11-13T09:08:32.049Z,20.83
2022-11-13T09:09:35.418Z,27.67
2022-11-13T09:10:37.139Z,28.00
2022-11-13T09:11:38.860Z,25.33
2022-11-13T09:12:40.584Z,22.40
2022-11-13T09:13:45.097Z,32.67
2022-11-13T09:14:49.114Z,28.93
2022-11-13T09:15:50.834Z,25.23
2022-11-13T09:16:52.522Z,30.00
2022-11-13T09:18:01.544Z,20.10
2022-11-13T09:19:04.014Z,22.33
2022-11-13T09:20:11.216Z,19.97
2022-11-13T09:21:15.316Z,21.80
2022-11-13T09:22:17.229Z,22.00
2022-11-13T09:23:18.909Z,20.63
2022-11-13T09:24:20.808Z,23.33
2022-11-13T09:25:22.471Z,19.10
2022-11-13T09:26:24.150Z,22.90
2022-11-13T09:27:25.886Z,23.43
2022-11-13T09:28:27.907Z,23.47
2022-11-13T09:29:29.968Z,23.57
2022-11-13T09:30:31.974Z,17.80
2022-11-13T09:31:33.719Z,21.80
2022-11-13T09:32:35.457Z,19.23
2022-11-13T09:33:37.254Z,18.07
2022-11-13T09:34:39.047Z,17.80
2022-11-13T09:35:41.112Z,18.27
2022-11-13T09:36:42.788Z,18.73
2022-11-13T09:37:44.597Z,18.07
2022-11-13T09:38:46.303Z,17.57
2022-11-13T09:39:48.042Z,21.23
2022-11-13T09:40:50.025Z,17.67
2022-11-13T09:42:18.585Z,17.10
2022-11-13T09:43:46.842Z,18.33
2022-11-13T09:44:55.755Z,17.20
2022-11-13T09:46:04.178Z,17.43
2022-11-13T09:47:12.910Z,16.43
2022-11-13T09:48:27.557Z,18.83
2022-11-13T09:49:33.357Z,19.30
2022-11-13T09:50:35.220Z,19.50
2022-11-13T09:51:39.218Z,19.77
2022-11-13T09:52:43.780Z,18.53
2022-11-13T09:53:45.691Z,17.67
2022-11-13T09:54:47.617Z,17.00
2022-11-13T09:56:00.396Z,17.07
2022-11-13T09:57:36.840Z,17.80
2022-11-13T09:58:47.089Z,18.33
2022-11-13T09:59:59.373Z,19.00
2022-11-13T10:01:01.694Z,17.60
2022-11-13T10:02:18.285Z,15.43
2022-11-13T10:04:00.045Z,16.13
2022-11-13T10:05:17.440Z,16.03
2022-11-13T10:06:19.097Z,15.80
2022-11-13T10:07:32.463Z,15.63
2022-11-13T10:08:40.417Z,14.27
2022-11-13T10:09:59.254Z,16.30
2022-11-13T10:11:07.014Z,16.50
2022-11-13T10:12:09.608Z,15.73
2022-11-13T10:13:16.034Z,14.83
2022-11-13T10:14:23.541Z,14.80
2022-11-13T10:15:26.758Z,15.50
2022-11-13T10:16:34.560Z,15.40
2022-11-13T10:17:57.129Z,15.77
2022-11-13T10:19:06.115Z,13.33
2022-11-13T10:20:33.952Z,15.40
2022-11-13T10:21:45.515Z,14.93
2022-11-13T10:22:51.394Z,13.40
2022-11-13T10:23:56.631Z,13.43
2022-11-13T10:25:10.632Z,14.80
2022-11-13T10:26:19.286Z,13.90
2022-11-13T10:27:20.943Z,14.67
2022-11-13T10:28:55.295Z,13.63
2022-11-13T10:29:49.342Z,13.43
2022-11-13T10:30:51.300Z,15.27
2022-11-13T10:31:53.444Z,15.37
2022-11-13T10:33:01.692Z,14.83
2022-11-13T10:34:03.682Z,17.47
2022-11-13T10:35:05.350Z,16.67
2022-11-13T10:36:38.748Z,13.80
2022-11-13T10:37:45.463Z,15.87
2022-11-13T10:38:53.743Z,16.23
2022-11-13T10:39:55.418Z,14.77
2022-11-13T10:41:18.360Z,13.83
2022-11-13T10:42:29.257Z,15.33
2022-11-13T10:43:31.244Z,14.83
2022-11-13T10:44:35.238Z,13.67
2022-11-13T10:45:36.903Z,13.90
2022-11-13T10:46:38.570Z,13.43
2022-11-13T10:48:05.041Z,13.93
2022-11-13T10:49:22.029Z,12.47
2022-11-13T10:50:31.324Z,16.70
2022-11-13T10:51:36.584Z,14.00
2022-11-13T10:52:47.377Z,14.00
2022-11-13T10:53:49.263Z,14.00
2022-11-13T10:54:51.397Z,14.63
2022-11-13T10:55:57.012Z,13.97
2022-11-13T10:57:04.432Z,14.93
2022-11-13T10:58:14.931Z,14.47
2022-11-13T10:59:19.092Z,13.70
2022-11-13T11:00:24.978Z,14.60
2022-11-13T11:01:26.800Z,14.90
2022-11-13T11:02:28.768Z,13.90
2022-11-13T11:03:30.456Z,14.33
2022-11-13T11:04:32.203Z,14.23
2022-11-13T11:05:34.192Z,14.20
2022-11-13T11:07:13.242Z,14.23
2022-11-13T11:08:01.350Z,14.57
2022-11-13T11:09:27.255Z,16.00
2022-11-13T11:10:57.142Z,13.37
2022-11-13T11:12:17.079Z,16.27
2022-11-13T11:13:23.897Z,16.20
2022-11-13T11:14:40.610Z,14.03
2022-11-13T11:15:51.049Z,14.53
2022-11-13T11:16:54.126Z,14.97
2022-11-13T11:18:03.554Z,15.63
2022-11-13T11:19:11.350Z,15.10
2022-11-13T11:20:37.693Z,15.73
2022-11-13T11:21:41.950Z,14.23
2022-11-13T11:22:45.821Z,14.53
2022-11-13T11:23:55.753Z,14.50
2022-11-13T11:25:05.083Z,14.67
2022-11-13T11:26:14.668Z,14.27
2022-11-13T11:27:22.984Z,15.30
2022-11-13T11:28:31.325Z,15.83
2022-11-13T11:29:58.870Z,16.97
2022-11-13T11:31:28.362Z,15.33
2022-11-13T11:32:44.871Z,16.30
2022-11-13T11:33:54.930Z,17.07
2022-11-13T11:35:06.687Z,15.70
2022-11-13T11:36:31.654Z,15.20
2022-11-13T11:37:40.750Z,15.20
2022-11-13T11:38:54.277Z,16.23
2022-11-13T11:40:03.046Z,15.40
2022-11-13T11:41:16.870Z,15.63
2022-11-13T11:42:38.745Z,16.13
2022-11-13T11:43:46.373Z,13.90
2022-11-13T11:45:00.149Z,15.93
2022-11-13T11:46:01.976Z,15.60
2022-11-13T11:47:03.790Z,14.30
2022-11-13T11:48:14.650Z,14.80
2022-11-13T11:49:16.571Z,15.13
2022-11-13T11:50:43.710Z,13.23
2022-11-13T11:51:45.509Z,13.50
2022-11-13T11:52:47.235Z,12.77
2022-11-13T11:54:02.615Z,13.00
2022-11-13T11:55:32.085Z,12.00
2022-11-13T11:56:51.043Z,14.53
2022-11-13T11:58:25.287Z,11.97
2022-11-13T11:59:42.721Z,13.67
2022-11-13T12:00:50.802Z,13.47
2022-11-13T12:02:34.009Z,13.27
2022-11-13T12:04:09.274Z,13.57
2022-11-13T12:05:23.941Z,12.77
2022-11-13T12:06:50.160Z,15.30
2022-11-13T12:08:19.875Z,15.23
2022-11-13T12:09:29.260Z,14.93
2022-11-13T12:10:55.044Z,13.93
2022-11-13T12:12:07.555Z,21.33
2022-11-13T12:13:28.239Z,23.03
2022-11-13T12:14:45.957Z,15.40
2022-11-13T12:15:57.104Z,14.68
2022-11-13T12:17:16.008Z,13.87
2022-11-13T12:19:03.642Z,14.40
2022-11-13T12:20:26.426Z,13.43
2022-11-13T12:22:00.121Z,13.77
2022-11-13T12:23:32.215Z,15.50
2022-11-13T12:24:55.435Z,15.23
2022-11-13T12:26:23.325Z,14.50
2022-11-13T12:27:31.362Z,15.07
2022-11-13T12:28:48.262Z,17.40
2022-11-13T12:30:17.046Z,14.60
2022-11-13T12:31:30.426Z,16.47
2022-11-13T12:32:50.976Z,15.43
2022-11-13T12:34:19.349Z,13.70
2022-11-13T12:35:25.042Z,14.23
2022-11-13T12:36:27.894Z,15.37
2022-11-13T12:37:40.964Z,16.50
2022-11-13T12:39:30.677Z,15.53
2022-11-13T12:40:43.040Z,14.97
2022-11-13T12:42:00.541Z,16.30
2022-11-13T12:43:12.603Z,15.67
2022-11-13T12:44:24.492Z,17.07
2022-11-13T12:45:36.959Z,15.43
2022-11-13T12:46:40.838Z,17.40
2022-11-13T12:47:43.310Z,14.97
2022-11-13T12:48:46.917Z,13.93
2022-11-13T12:50:06.075Z,14.27
2022-11-13T12:51:13.266Z,16.00
2022-11-13T12:52:22.873Z,15.87
2022-11-13T12:53:48.956Z,17.90
2022-11-13T12:54:52.333Z,17.97
2022-11-13T12:56:00.348Z,24.50
2022-11-13T12:57:09.061Z,20.80
2022-11-13T12:58:32.781Z,17.17
2022-11-13T12:59:37.103Z,19.90
2022-11-13T13:00:41.217Z,16.33
2022-11-13T13:01:48.933Z,15.17
2022-11-13T13:02:55.350Z,15.53
2022-11-13T13:04:00.063Z,14.03
2022-11-13T13:05:28.651Z,14.83
2022-11-13T13:07:02.295Z,16.23
2022-11-13T13:08:19.868Z,15.30
2022-11-13T13:09:52.914Z,14.55
2022-11-13T13:10:54.605Z,15.50
2022-11-13T13:12:40.236Z,13.10
2022-11-13T13:14:04.023Z,15.87
2022-11-13T13:15:33.630Z,12.40
2022-11-13T13:16:35.376Z,12.00
2022-11-13T13:17:37.082Z,12.60
2022-11-13T13:18:40.479Z,14.13
2022-11-13T13:19:42.433Z,12.27
2022-11-13T13:21:08.975Z,12.40
2022-11-13T13:22:27.403Z,13.57
2022-11-13T13:23:35.993Z,14.23
2022-11-13T13:24:39.046Z,15.07
2022-11-13T13:25:41.095Z,13.27
2022-11-13T13:26:47.178Z,14.90
2022-11-13T13:28:04.206Z,14.50
2022-11-13T13:29:18.000Z,13.43
2022-11-13T13:30:22.109Z,12.57
2022-11-13T13:32:06.279Z,13.00
2022-11-13T13:33:26.294Z,14.47
2022-11-13T13:34:35.295Z,14.20
2022-11-13T13:35:44.562Z,14.93
2022-11-13T13:37:01.240Z,14.27
2022-11-13T13:38:28.781Z,14.03
2022-11-13T13:39:49.615Z,15.10
2022-11-13T13:41:17.862Z,14.17
2022-11-13T13:42:22.295Z,16.47
2022-11-13T13:43:32.732Z,14.67
2022-11-13T13:44:49.581Z,14.33
2022-11-13T13:46:06.519Z,16.67
2022-11-13T13:47:39.676Z,14.95
2022-11-13T13:48:43.673Z,16.67
2022-11-13T13:49:45.887Z,13.03
2022-11-13T13:50:49.980Z,13.52
2022-11-13T13:51:53.949Z,13.87
2022-11-13T13:52:58.029Z,13.00
2022-11-13T13:54:02.153Z,13.27
2022-11-13T13:55:07.458Z,14.50
2022-11-13T13:56:12.849Z,16.23
2022-11-13T13:57:16.436Z,15.93
2022-11-13T13:58:24.314Z,16.07
2022-11-13T13:59:32.954Z,18.10
2022-11-13T14:00:38.503Z,15.57
2022-11-13T14:01:59.958Z,15.97
2022-11-13T14:03:03.257Z,17.00
2022-11-13T14:04:22.707Z,19.53
2022-11-13T14:05:30.865Z,17.30